Latest Coastal Weather Observations for Warruwi

IDD60701

Issued at 12:51 am CST Tuesday 26 May 2015 (issued every 10 minutes, with the page automatically refreshed every 10 minutes)

About coastal observations | Map of coastal stations | Coastal observations for NT | Marine services | Other Formats
Station Details ID: 014401 Name: WARRUWI AIRPORT Lat: -11.65 Lon: 133.38 Height: 19.2 m
Data from the previous 72 hours. | See also: Recent months at Warruwi
Date/Time
CST
Temp

°C
Wind Pressure Rain
since 9am
mm
Weather Cloud Vis
km
Sea
Height
m
Swell
Dir
 
Speed
knots
Gust
knots
hPa Trend Height
m
Period
s
Dir
26/12:30am 27.1 ESE 8 11 1015.6 - 0.0 - - - - - - -
26/12:00am 27.3 ESE 8 11 1015.9 - 0.0 - - - - - - -
 
Date/Time
CST
Temp

°C
Wind Pressure Rain
since 9am
mm
Weather Cloud Vis
km
Sea
Height
m
Swell
Dir
 
Speed
knots
Gust
knots
hPa Trend Height
m
Period
s
Dir
25/11:30pm 27.3 ESE 7 10 1016.3 - 0.0 - - - - - - -
25/11:00pm 27.1 E 8 10 1016.4 - 0.0 - - - - - - -
25/10:30pm 27.2 E 7 10 1016.5 - 0.0 - - - - - - -
25/10:00pm 27.4 E 6 9 1016.4 - 0.0 - - - - - - -
25/09:30pm 27.2 E 4 7 1016.2 - 0.0 - - - - - - -
25/09:00pm 27.2 E 5 7 1015.9 - 0.0 - - - - - - -
25/08:30pm 27.1 E 4 6 1015.6 - 0.0 - - - - - - -
25/08:00pm 27.0 E 3 5 1015.2 - 0.0 - - - - - - -
25/07:30pm 27.1 ENE 4 8 1014.7 - 0.0 - - - - - - -
25/07:00pm 27.3 ENE 4 6 1014.3 - 0.0 - - - - - - -
25/06:30pm 27.5 ENE 4 6 1013.9 - 0.0 - - - - - - -
25/06:00pm 27.7 ENE 4 7 1013.7 - 0.0 - - - - - - -
25/05:30pm 28.2 E 6 7 1013.4 - 0.0 - - - - - - -
25/05:00pm 28.7 E 5 8 1013.4 - 0.0 - - - - - - -
25/04:30pm 29.1 ENE 6 10 1013.6 - 0.0 - - - - - - -
25/04:00pm 29.1 E 8 13 1013.7 - 0.0 - - - - - - -
25/03:30pm 29.5 E 7 13 1013.7 - 0.0 - - - - - - -
25/03:00pm 29.3 E 7 10 1013.7 - 0.0 - - - - - - -
25/02:30pm 29.1 E 9 13 1013.9 - 0.0 - - - - - - -
25/02:00pm 29.2 E 9 13 1014.3 - 0.0 - - - - - - -
25/01:30pm 29.3 E 9 13 1014.7 - 0.0 - - - - - - -
25/01:00pm 29.6 E 9 12 1015.0 - 0.0 - - - - - - -
25/12:30pm 30.3 ESE 10 14 1015.2 - 0.0 - - - - - - -
25/12:00pm 29.7 E 12 16 1015.5 - 0.0 - - - - - - -
25/11:30am 29.3 ESE 11 15 1015.8 - 0.0 - - - - - - -
25/11:00am 28.4 ESE 11 15 1016.2 - 0.0 - - - - - - -
25/10:30am 28.0 ESE 11 16 1016.4 - 0.0 - - - - - - -
25/10:00am 28.2 ESE 11 15 1016.6 - 0.0 - - - - - - -
25/09:30am 26.8 ESE 13 16 1016.7 - 0.0 - - - - - - -
25/09:00am 26.5 ESE 12 17 1016.8 - 0.0 - - - - - - -
25/08:30am 25.4 SE 11 15 1016.7 - 0.0 - - - - - - -
25/08:00am 24.9 ESE 10 14 1016.5 - 0.0 - - - - - - -
25/07:30am 24.9 SE 11 15 1016.0 - 0.0 - - - - - - -
25/07:00am 24.8 ESE 9 12 1015.7 - 0.0 - - - - - - -
25/06:30am 24.7 SE 9 11 1015.4 - 0.0 - - - - - - -
25/06:00am 24.6 SE 7 10 1015.1 - 0.0 - - - - - - -
25/05:30am 24.6 SE 8 10 1015.0 - 0.0 - - - - - - -
25/05:00am 24.7 SE 7 11 1014.9 - 0.0 - - - - - - -
25/04:30am 24.6 SE 8 13 1014.9 - 0.0 - - - - - - -
25/04:00am 24.7 SE 9 13 1014.7 - 0.0 - - - - - - -
25/03:30am 24.9 SE 9 13 1014.8 - 0.0 - - - - - - -
25/03:00am 25.3 SE 8 12 1014.9 - 0.0 - - - - - - -
25/02:30am 25.5 SE 6 9 1015.0 - 0.0 - - - - - - -
25/02:00am 25.9 SE 6 9 1015.1 - 0.0 - - - - - - -
25/01:30am 26.4 ESE 8 11 1015.3 - 0.0 - - - - - - -
25/01:00am 26.4 ESE 6 8 1015.5 - 0.0 - - - - - - -
25/12:30am 27.2 ESE 10 14 1015.8 - 0.0 - - - - - - -
25/12:00am 27.0 E 5 9 1015.7 - 0.0 - - - - - - -
 
Date/Time
CST
Temp

°C
Wind Pressure Rain
since 9am
mm
Weather Cloud Vis
km
Sea
Height
m
Swell
Dir
 
Speed
knots
Gust
knots
hPa Trend Height
m
Period
s
Dir
24/11:30pm 27.0 E 5 8 1015.8 - 0.0 - - - - - - -
24/11:00pm 26.9 E 5 6 1015.8 - 0.0 - - - - - - -
24/10:30pm 26.8 E 5 7 1015.8 - 0.0 - - - - - - -
24/10:00pm 26.8 E 5 7 1015.7 - 0.0 - - - - - - -
24/09:30pm 25.7 E 3 5 1015.5 - 0.0 - - - - - - -
24/09:00pm 24.4 CALM 0 0 1015.3 - 0.0 - - - - - - -
24/08:30pm 24.4 CALM 0 1 1014.9 - 0.0 - - - - - - -
24/08:00pm 24.7 E 2 2 1014.5 - 0.0 - - - - - - -
24/07:30pm 25.8 ENE 2 3 1014.1 - 0.0 - - - - - - -
24/07:00pm 26.1 ENE 3 4 1013.8 - 0.0 - - - - - - -
24/06:30pm 26.3 NE 2 4 1013.6 - 0.0 - - - - - - -
24/06:00pm 27.4 NE 2 3 1013.5 - 0.0 - - - - - - -
24/05:30pm 28.5 NE 3 5 1013.2 - 0.0 - - - - - - -
24/05:00pm 28.6 E 4 6 1013.0 - 0.0 - - - - - - -
24/04:30pm 28.8 E 5 7 1012.9 - 0.0 - - - - - - -
24/04:00pm 29.3 E 6 9 1012.8 - 0.0 - - - - - - -
24/03:30pm 29.1 ENE 6 8 1012.8 - 0.0 - - - - - - -
24/03:00pm 29.5 E 5 8 1012.8 - 0.0 - - - - - - -
24/02:30pm 29.5 E 7 11 1012.9 - 0.0 - - - - - - -
24/02:00pm 29.4 E 9 11 1013.0 - 0.0 - - - - - - -
24/01:30pm 29.5 ESE 9 13 1013.4 - 0.0 - - - - - - -
24/01:00pm 29.2 ESE 9 14 1013.9 - 0.0 - - - - - - -
24/12:30pm 28.6 ESE 11 14 1014.3 - 0.0 - - - - - - -
24/12:00pm 28.1 ESE 10 16 1014.7 - 0.0 - - - - - - -
24/11:30am 27.7 ESE 11 16 1015.1 - 0.0 - - - - - - -
24/11:00am 27.4 ESE 13 18 1015.4 - 0.0 - - - - - - -
24/10:30am 26.5 ESE 13 18 1015.7 - 0.0 - - - - - - -
24/10:00am 25.9 ESE 15 20 1015.9 - 0.0 - - - - - - -
24/09:30am 25.3 ESE 13 19 1015.9 - 0.0 - - - - - - -
24/09:00am 24.9 ESE 13 20 1015.8 - 0.0 - - - - - - -
24/08:30am 24.4 ESE 14 20 1015.7 - 0.0 - - - - - - -
24/08:00am 23.9 ESE 10 15 1015.5 - 0.0 - - - - - - -
24/07:30am 23.0 ESE 9 12 1015.4 - 0.0 - - - - - - -
24/07:00am 22.2 SE 8 13 1015.1 - 0.0 - - - - - - -
24/06:30am 22.0 ESE 9 14 1014.9 - 0.0 - - - - - - -
24/06:00am 22.3 SE 9 14 1014.6 - 0.0 - - - - - - -
24/05:30am 22.6 ESE 11 16 1014.5 - 0.0 - - - - - - -
24/05:00am 22.8 ESE 11 16 1014.4 - 0.0 - - - - - - -
24/04:30am 22.9 ESE 9 13 1014.4 - 0.0 - - - - - - -
24/04:00am 23.1 ESE 10 15 1014.2 - 0.0 - - - - - - -
24/03:30am 23.2 ESE 10 17 1014.5 - 0.0 - - - - - - -
24/03:00am 23.3 ESE 10 15 1014.7 - 0.0 - - - - - - -
24/02:30am 23.7 ESE 11 18 1014.8 - 0.0 - - - - - - -
24/02:00am 24.0 SE 11 17 1014.7 - 0.0 - - - - - - -
24/01:30am 24.2 SE 10 15 1015.0 - 0.0 - - - - - - -
24/01:00am 24.8 ESE 12 19 1015.1 - 0.0 - - - - - - -
24/12:30am 25.2 ESE 12 18 1015.1 - 0.0 - - - - - - -
24/12:00am 25.6 ESE 9 15 1015.1 - 0.0 - - - - - - -
 
Date/Time
CST
Temp

°C
Wind Pressure Rain
since 9am
mm
Weather Cloud Vis
km
Sea
Height
m
Swell
Dir
 
Speed
knots
Gust
knots
hPa Trend Height
m
Period
s
Dir
23/11:30pm 26.0 ESE 8 12 1015.0 - 0.0 - - - - - - -
23/11:00pm 26.4 ESE 9 13 1014.9 - 0.0 - - - - - - -
23/10:30pm 26.7 ESE 9 12 1014.9 - 0.0 - - - - - - -
23/10:00pm 27.0 E 10 13 1014.7 - 0.0 - - - - - - -
23/09:30pm 27.2 E 9 13 1014.6 - 0.0 - - - - - - -
23/09:00pm 27.0 E 7 13 1014.5 - 0.0 - - - - - - -
23/08:30pm 26.9 E 7 12 1014.4 - 0.0 - - - - - - -
23/08:00pm 26.8 E 6 9 1014.1 - 0.0 - - - - - - -
23/07:30pm 26.8 E 7 10 1013.9 - 0.0 - - - - - - -
23/07:00pm 26.6 E 6 10 1013.7 - 0.0 - - - - - - -
23/06:30pm 26.6 E 5 9 1013.4 - 0.0 - - - - - - -
23/06:00pm 26.9 E 6 11 1013.2 - 0.0 - - - - - - -
23/05:30pm 27.4 ENE 6 10 1012.9 - 0.0 - - - - - - -
23/05:00pm 28.0 ENE 7 11 1012.6 - 0.0 - - - - - - -
23/04:30pm 28.7 E 8 13 1012.3 - 0.0 - - - - - - -
23/04:00pm 28.5 ENE 8 14 1012.3 - 0.0 - - - - - - -
23/03:30pm 28.6 ENE 9 15 1012.4 - 0.0 - - - - - - -
23/03:00pm 28.3 ENE 9 14 1012.7 - 0.0 - - - - - - -
23/02:30pm 28.6 ENE 9 13 1012.9 - 0.0 - - - - - - -
23/02:00pm 30.0 E 8 12 1013.3 - 0.0 - - - - - - -
23/01:30pm 30.8 E 9 13 1013.9 - 0.0 - - - - - - -
23/01:00pm 30.8 ESE 9 13 1014.3 - 0.0 - - - - - - -
23/12:30pm 29.7 ESE 10 13 1014.7 - 0.0 - - - - - - -
23/12:00pm 29.6 ESE 10 13 1015.2 - 0.0 - - - - - - -
23/11:30am 29.4 ESE 10 15 1015.7 - 0.0 - - - - - - -
23/11:00am 28.4 SE 11 15 1016.0 - 0.0 - - - - - - -
23/10:30am 28.0 SE 12 15 1016.4 - 0.0 - - - - - - -
23/10:00am 27.6 SE 10 14 1016.4 - 0.0 - - - - - - -
23/09:30am 26.7 SE 13 18 1016.5 - 0.0 - - - - - - -
23/09:00am 26.0 SE 13 18 1016.4 - 0.0 - - - - - - -
23/08:30am 25.9 SE 13 19 1016.2 - 0.0 - - - - - - -
23/08:00am 25.1 SE 13 18 1015.9 - 0.0 - - - - - - -
23/07:30am 24.6 SE 10 16 1015.7 - 0.0 - - - - - - -
23/07:00am 24.2 SE 10 17 1015.5 - 0.0 - - - - - - -
23/06:30am 24.3 SE 10 16 1015.3 - 0.0 - - - - - - -
23/06:00am 24.3 SE 10 16 1015.1 - 0.0 - - - - - - -
23/05:30am 24.1 SE 9 15 1015.1 - 0.0 - - - - - - -
23/05:00am 23.9 SE 6 11 1014.7 - 0.0 - - - - - - -
23/04:30am 24.1 SE 8 12 1014.6 - 0.0 - - - - - - -
23/04:00am 24.3 SE 8 11 1014.6 - 0.0 - - - - - - -
23/03:30am 24.5 SE 7 12 1014.7 - 0.0 - - - - - - -
23/03:00am 24.5 SE 6 10 1014.8 - 0.0 - - - - - - -
23/02:30am 24.7 SE 8 11 1014.9 - 0.0 - - - - - - -
23/02:00am 25.1 SE 8 12 1015.0 - 0.0 - - - - - - -
23/01:30am 25.2 SE 9 15 1015.2 - 0.0 - - - - - - -
23/01:00am 25.5 ESE 12 19 1015.4 - 0.0 - - - - - - -

Other Formats:

Comma delimited format used in spreadsheet applications
http://www.bom.gov.au/fwo/IDD60701/IDD60701.94139.axf

JavaScript Object Notation format (JSON) in row-major order
http://www.bom.gov.au/fwo/IDD60701/IDD60701.94139.json